• Join FlightAware (Why Join?)
  • Login
  • US Flag 
08:58AM EDT


 

Airport Tracker/Info


-or-


 

Live Flight TrackerFlight Track Log ✈ SWA2931 ✈ 05-Jan-2013 ✈ KMDW - KPHX

Flight Track Log - Related Links

Times and Time Zones

All times are in EST time to prevent confusion due to time zone crossing. See the SWA2931 flight status page for this flight to view local times or setup timezone preferences in your user account.

Time Position Orientation Groundspeed Altitude Reporting Facility
EST Latitude Longitude Course Direction KTS MPH feet Rate Location/Type
06:54PM 41.7667 -87.7833 283° West 150 173 2,700  Level Chicago TRACON
06:55PM 41.7500 -87.8500 251° West 179 206 3,000 120 Climbing Chicago TRACON
06:56PM 41.7333 -87.9167 251° West 178 205 3,000 120 Level Chicago TRACON
06:57PM 41.7339 -87.9286 274° West 174 200 3,200 1,920 Climbing Chicago Center
06:58PM 41.7592 -87.9975 296° West 201 231 5,700 1,440 Climbing Chicago Center
06:59PM 41.7869 -88.0808 294° West 231 266 6,200 1,680 Climbing Chicago Center
07:00PM 41.9260 -88.6226 283° West  Level FlightAware Approximate
07:00PM 41.8031 -88.1664 284° West 246 283 9,200  Level Chicago Center
07:01PM 41.8019 -88.2611 269° West 256 295 12,200 2,700 Climbing Chicago Center
07:02PM 41.7853 -88.4000 261° West 326 375 14,700 2,580 Climbing Chicago Center
07:03PM 41.7606 -88.5272 255° West 357 411 17,500 2,640 Climbing Chicago Center
07:04PM 41.7344 -88.6583 255° West 365 420 20,200 2,460 Climbing Chicago Center
07:05PM 41.7072 -88.7936 255° West 374 430 22,600 2,160 Climbing Chicago Center
07:06PM 41.6789 -88.9353 255° West 393 452 24,700 1,680 Climbing Chicago Center
07:07PM 41.6486 -89.0833 255° West 410 472 26,100 1,500 Climbing Chicago Center
07:08PM 41.6169 -89.2378 255° West 428 493 27,800 2,220 Climbing Chicago Center
07:09PM 41.5792 -89.4222 255° West 431 496 30,700 2,520 Climbing Chicago Center
07:10PM 41.5531 -89.5542 255° West 419 482 33,000 1,560 Climbing Chicago Center
07:11PM 41.5225 -89.6956 254° West 404 465 33,900 1,320 Climbing Chicago Center
07:12PM 41.4922 -89.8406 254° West 407 468 35,800 1,560 Climbing Chicago Center
07:13PM 41.4631 -89.9800 254° West 400 460 37,200 1,080 Climbing Chicago Center
07:14PM 41.4311 -90.1156 253° West 390 449 38,000 360 Climbing Chicago Center
07:15PM 41.3919 -90.2828 253° West 394 453 38,000  Level Chicago Center
07:16PM 41.3603 -90.4217 253° West 395 455 38,000  Level Chicago Center
07:17PM 41.3269 -90.5603 252° West 395 455 38,000  Level Chicago Center
07:18PM 41.2939 -90.6989 252° West 395 455 38,000  Level Chicago Center
07:19PM 41.2603 -90.8375 252° West 396 456 38,000  Level Chicago Center
07:20PM 41.2275 -90.9750 252° West 394 453 38,000  Level Chicago Center
07:21PM 41.1936 -91.1128 252° West 394 453 38,000  Level Chicago Center
07:22PM 41.1597 -91.2489 252° West 391 450 38,000  Level Chicago Center
07:23PM 41.1261 -91.3850 252° West 390 449 38,000  Level Chicago Center
07:24PM 41.0878 -91.5481 253° West 388 447 38,000  Level Chicago Center
07:25PM 41.0572 -91.6647 251° West 388 447 38,000  Level Chicago Center
07:26PM 41.0239 -91.8008 252° West 391 450 38,000  Level Chicago Center
07:27PM 40.9819 -91.9658 251° West 396 456 38,000  Level Chicago Center
07:28PM 40.9481 -92.1025 252° West 396 456 38,000  Level Chicago Center
07:29PM 40.9125 -92.2403 251° West 398 458 38,000  Level Chicago Center
07:30PM 40.8778 -92.3756 251° West 395 455 38,000  Level Chicago Center
07:31PM 40.8433 -92.5103 251° West 393 452 38,000  Level Chicago Center
07:32PM 40.8089 -92.6442 251° West 391 450 38,000  Level Chicago Center
07:33PM 40.7664 -92.8047 251° West 391 450 38,000  Level Chicago Center
07:34PM 40.7308 -92.9414 251° West 398 458 38,000  Level Chicago Center
07:35PM 40.6950 -93.0783 251° West 400 460 38,000  Level Chicago Center
07:36PM 40.6589 -93.2136 251° West 398 458 38,000  Level Chicago Center
07:37PM 40.6239 -93.3500 251° West 397 457 38,000  Level Chicago Center
07:38PM 40.5969 -93.4381 248° West 400 460 38,000  Level Kansas City Center
07:38PM 40.5867 -93.4844 254° West 396 456 38,000  Level Minneapolis Center
07:39PM 40.5511 -93.6197 251° West 397 457 38,000  Level Minneapolis Center
07:40PM 40.5058 -93.7814 250° West 396 456 38,000  Level Minneapolis Center
07:41PM 40.4697 -93.9164 251° West 396 456 38,000  Level Minneapolis Center
07:43PM 40.4319 -94.0517 250° West 396 456 38,000  Level Minneapolis Center
07:44PM 40.3950 -94.1878 250° West 398 458 38,000  Level Minneapolis Center
07:45PM 40.3578 -94.3233 250° West 399 459 38,000  Level Minneapolis Center
07:45PM 40.3433 -94.3781 251° West 405 466 38,000  Level Kansas City Center
07:46PM 40.3200 -94.4589 249° West 399 459 38,000  Level Minneapolis Center
07:47PM 40.2786 -94.6064 250° West 397 457 38,000  Level Minneapolis Center
07:48PM 40.2417 -94.7425 250° West 397 457 38,000  Level Minneapolis Center
07:49PM 40.2022 -94.8797 249° West 400 460 38,000  Level Minneapolis Center
07:50PM 40.1639 -95.0153 250° West 398 458 38,000  Level Minneapolis Center
07:51PM 40.1256 -95.1514 250° West 398 458 38,000  Level Minneapolis Center
07:51PM 40.1144 -95.1922 250° West 409 471 38,000  Level Kansas City Center
07:52PM 40.0719 -95.3411 250° West 409 471 38,000  Level Kansas City Center
07:53PM 40.0472 -95.4269 249° West 403 464 38,000  Level Minneapolis Center
07:55PM 39.9494 -95.7592 249° West 409 471 38,000  Level Kansas City Center
07:56PM 39.9083 -95.8964 249° West 409 471 38,000  Level Kansas City Center
07:57PM 39.8692 -96.0333 250° West 409 471 38,000  Level Kansas City Center
07:58PM 39.8300 -96.1678 249° West 409 471 38,000  Level Kansas City Center
07:59PM 39.7908 -96.2911 248° West 409 471 38,000  Level Kansas City Center
08:00PM 39.7511 -96.4303 250° West 409 471 38,000  Level Kansas City Center
08:01PM 39.7069 -96.5775 249° West 404 465 38,000  Level Kansas City Center
08:02PM 39.6650 -96.7139 248° West 410 472 38,000  Level Kansas City Center
08:03PM 39.6272 -96.8367 248° West 410 472 38,000 -480 Level Kansas City Center
08:04PM 39.5825 -96.9886 249° West 410 472 37,100 -780 Descending Kansas City Center
08:05PM 39.5400 -97.1272 248° West 410 472 36,500 -780 Descending Kansas City Center
08:06PM 39.5017 -97.2522 248° West 410 472 35,600 -1,020 Descending Kansas City Center
08:07PM 39.4567 -97.3931 248° West 399 459 34,500 -1,020 Descending Kansas City Center
08:08PM 39.4161 -97.5231 248° West 393 452 33,600 -900 Descending Kansas City Center
08:09PM 39.3750 -97.6556 248° West 393 452 32,700 -840 Descending Kansas City Center
08:10PM 39.3364 -97.7772 248° West 400 460 32,000 -360 Descending Kansas City Center
08:11PM 39.2931 -97.9094 247° West 407 468 32,000  Level Kansas City Center
08:12PM 39.2472 -98.0547 248° West 407 468 32,000  Level Kansas City Center
08:13PM 39.2056 -98.1919 249° West 407 468 32,000  Level Kansas City Center
08:14PM 39.1664 -98.3131 247° West 407 468 32,000  Level Kansas City Center
08:15PM 39.1225 -98.4447 247° West 407 468 32,000  Level Kansas City Center
08:16PM 39.0783 -98.5814 247° West 407 468 32,000  Level Kansas City Center
08:17PM 39.0361 -98.7125 248° West 407 468 32,000  Level Kansas City Center
08:18PM 38.9811 -98.8764 247° West 409 471 32,000  Level Denver Center
08:19PM 38.9261 -99.0211 244° Southwest 415 478 32,000  Level Denver Center
08:20PM 38.8853 -99.1267 244° Southwest 415 478 32,000  Level Denver Center
08:21PM 38.8431 -99.2453 245° Southwest 413 475 32,000  Level Kansas City Center
08:22PM 38.7942 -99.3781 245° Southwest 418 481 32,000  Level Kansas City Center
08:22PM 38.7733 -99.4233 239° Southwest 414 476 32,000  Level Denver Center
08:23PM 38.7083 -99.5922 244° Southwest 414 476 32,000  Level Denver Center
08:24PM 38.6589 -99.7186 243° Southwest 416 479 32,000 420 Level Denver Center
08:26PM 38.5931 -99.8878 244° Southwest 417 480 33,000 960 Climbing Denver Center
08:27PM 38.5503 -99.9978 244° Southwest 425 489 34,200 1,440 Climbing Denver Center
08:28PM 38.4836 -100.1686 244° Southwest 423 487 36,000 840 Climbing Denver Center
08:29PM 38.4344 -100.2933 243° Southwest 416 479 36,000  Level Denver Center
08:30PM 38.3847 -100.4164 243° Southwest 412 474 36,000  Level Denver Center
08:31PM 38.3275 -100.5622 243° Southwest 412 474 36,000  Level Denver Center
08:32PM 38.2775 -100.6875 243° Southwest 415 478 36,000  Level Denver Center
08:33PM 38.2183 -100.8344 243° Southwest 418 481 36,000  Level Denver Center
08:34PM 38.1686 -100.9619 244° Southwest 421 484 36,000  Level Denver Center
08:35PM 38.1072 -101.1097 242° Southwest 425 489 36,000  Level Denver Center
08:36PM 38.0558 -101.2389 243° Southwest 429 494 36,000  Level Denver Center
08:37PM 38.0122 -101.3472 243° Southwest 433 498 36,000 -60 Level Denver Center
08:38PM 37.9419 -101.5175 242° Southwest 431 496 35,900 -540 Descending Denver Center
08:39PM 37.8897 -101.6456 243° Southwest 429 494 35,000 -1,800 Descending Denver Center
08:40PM 37.8286 -101.7961 243° Southwest 431 496 32,300 -2,220 Descending Denver Center
08:41PM 37.7761 -101.9222 242° Southwest 426 490 30,500 -1,140 Descending Denver Center
08:42PM 37.7139 -102.0694 242° Southwest 426 490 30,000 -180 Descending Denver Center
08:44PM 37.5950 -102.3575 243° Southwest 417 480 30,000  Level Albuquerque Center
08:45PM 37.5394 -102.4864 242° Southwest 416 479 30,000  Level Albuquerque Center
08:46PM 37.4875 -102.6094 242° Southwest 415 478 30,000  Level Albuquerque Center
08:47PM 37.4275 -102.7519 242° Southwest 413 475 30,000  Level Albuquerque Center
08:48PM 37.3753 -102.8736 242° Southwest 412 474 30,000  Level Albuquerque Center
08:49PM 37.3147 -103.0144 242° Southwest 411 473 30,000  Level Albuquerque Center
08:50PM 37.2625 -103.1356 242° Southwest 410 472 30,000  Level Albuquerque Center
08:52PM 37.2097 -103.2572 241° Southwest 412 474 30,000  Level Albuquerque Center
08:53PM 37.1481 -103.3992 241° Southwest 412 474 30,000  Level Albuquerque Center
08:54PM 37.0944 -103.5219 241° Southwest 415 478 30,000  Level Albuquerque Center
08:55PM 37.0406 -103.6447 241° Southwest 417 480 30,000  Level Albuquerque Center
08:56PM 36.9775 -103.7878 241° Southwest 418 481 30,000  Level Albuquerque Center
08:57PM 36.9239 -103.9097 241° Southwest 417 480 30,000  Level Albuquerque Center
08:58PM 36.8697 -104.0311 241° Southwest 416 479 30,000  Level Albuquerque Center
08:59PM 36.8061 -104.1722 241° Southwest 416 479 30,000  Level Albuquerque Center
09:00PM 36.7522 -104.2931 241° Southwest 416 479 30,000  Level Albuquerque Center
09:01PM 36.6889 -104.4347 241° Southwest 417 480 30,000  Level Albuquerque Center
09:02PM 36.6356 -104.5531 241° Southwest 419 482 30,000 300 Level Albuquerque Center
09:03PM 36.5750 -104.6833 240° Southwest 427 491 30,700 1,020 Climbing Albuquerque Center
09:04PM 36.5125 -104.8236 241° Southwest 450 518 32,200 1,560 Climbing Albuquerque Center
09:05PM 36.4589 -104.9703 246° West 460 529 33,900 1,920 Climbing Albuquerque Center
09:06PM 36.4106 -105.1144 247° West 453 521 36,200 1,740 Climbing Albuquerque Center
09:07PM 36.3619 -105.2572 247° West 448 516 37,500 840 Climbing Albuquerque Center
09:08PM 36.3075 -105.4192 247° West 438 504 38,000 240 Climbing Albuquerque Center
09:09PM 36.2675 -105.5364 247° West 436 502 38,000  Level Albuquerque Center
09:10PM 36.2206 -105.6744 247° West 435 501 38,000  Level Albuquerque Center
09:11PM 36.1731 -105.8117 247° West 435 501 38,000  Level Albuquerque Center
09:12PM 36.1167 -105.9783 247° West 438 504 38,000  Level Albuquerque Center
09:13PM 36.0689 -106.1153 247° West 436 502 38,000  Level Albuquerque Center
09:14PM 36.0222 -106.2536 247° West 438 504 38,000  Level Albuquerque Center
09:15PM 35.9750 -106.3911 247° West 437 503 38,000  Level Albuquerque Center
09:16PM 35.9267 -106.5278 246° West 435 501 38,000  Level Albuquerque Center
09:17PM 35.8800 -106.6606 247° West 433 498 38,000  Level Albuquerque Center
09:18PM 35.8267 -106.8131 247° West 434 499 38,000  Level Albuquerque Center
09:19PM 35.7797 -106.9428 246° West 433 498 38,000  Level Albuquerque Center
09:20PM 35.7269 -107.0939 247° West 432 497 38,000  Level Albuquerque Center
09:21PM 35.6800 -107.2236 246° West 432 497 38,000 -420 Level Albuquerque Center
09:22PM 35.6328 -107.3550 246° West 434 499 37,200 -840 Descending Albuquerque Center
09:23PM 35.5778 -107.5092 246° West 439 505 36,300 -600 Descending Albuquerque Center
09:24PM 35.5292 -107.6417 246° West 441 507 36,000 -180 Descending Albuquerque Center
09:25PM 35.4825 -107.7700 246° West 437 503 36,000  Level Albuquerque Center
09:26PM 35.4278 -107.9197 246° West 432 497 36,000  Level Albuquerque Center
09:27PM 35.3808 -108.0486 246° West 431 496 36,000  Level Albuquerque Center
09:28PM 35.3258 -108.1978 246° West 430 495 36,000  Level Albuquerque Center
09:29PM 35.2783 -108.3272 246° West 432 497 36,000  Level Albuquerque Center
09:30PM 35.2297 -108.4572 245° Southwest 434 499 36,000  Level Albuquerque Center
09:31PM 35.1733 -108.6083 245° Southwest 436 502 36,000  Level Albuquerque Center
09:32PM 35.1256 -108.7364 246° West 434 499 36,000  Level Albuquerque Center
09:33PM 35.0783 -108.8631 246° West 429 494 36,000  Level Albuquerque Center
09:34PM 35.0222 -109.0100 245° Southwest 427 491 36,000  Level Albuquerque Center
09:35PM 34.9750 -109.1364 246° West 427 491 36,000  Level Albuquerque Center
09:36PM 34.9283 -109.2614 246° West 425 489 36,000  Level Albuquerque Center
09:37PM 34.8756 -109.4092 247° West 424 488 36,000  Level Albuquerque Center
09:38PM 34.8283 -109.5336 245° Southwest 424 488 36,000  Level Albuquerque Center
09:39PM 34.7819 -109.6575 246° West 421 484 36,000 -660 Level Albuquerque Center
09:40PM 34.7286 -109.8019 246° West 420 483 34,700 -1,140 Descending Albuquerque Center
09:41PM 34.6828 -109.9256 246° West 419 482 33,800 -900 Descending Albuquerque Center
09:43PM 34.6364 -110.0517 246° West 422 486 32,900 -960 Descending Albuquerque Center
09:44PM 34.5839 -110.2031 247° West 432 497 31,900 -1,020 Descending Albuquerque Center
09:45PM 34.5383 -110.3292 246° West 430 495 30,900 -960 Descending Albuquerque Center
09:46PM 34.4861 -110.4650 245° Southwest 450 518 30,000 -960 Descending Albuquerque Center
09:47PM 34.4353 -110.6008 246° West 446 513 29,000 -900 Descending Albuquerque Center
09:48PM 34.3825 -110.7361 245° Southwest 446 513 28,300 -1,320 Descending Albuquerque Center
09:49PM 34.3092 -110.8533 233° Southwest 436 502 26,400 -1,680 Descending Albuquerque Center
09:50PM 34.2331 -110.9531 227° Southwest 406 467 25,000 -2,100 Descending Albuquerque Center
09:51PM 34.1597 -111.0469 227° Southwest 385 443 22,200 -2,340 Descending Albuquerque Center
09:52PM 34.0903 -111.1375 227° Southwest 375 432 20,300 -1,800 Descending Albuquerque Center
09:53PM 34.0231 -111.2242 227° Southwest 361 415 18,600 -1,380 Descending Albuquerque Center
09:54PM 33.9597 -111.3044 226° Southwest 337 388 17,500 -1,440 Descending Albuquerque Center
09:55PM 33.8969 -111.3847 227° Southwest 329 379 15,700 -1,800 Descending Albuquerque Center
09:56PM 33.8372 -111.4886 235° Southwest 317 365 13,900 -1,860 Descending Albuquerque Center
09:57PM 33.7914 -111.5722 237° Southwest 300 345 12,000 -1,740 Descending Albuquerque Center
09:58PM 33.7472 -111.6569 238° Southwest 297 342 10,400 -960 Descending Albuquerque Center
09:59PM 33.7089 -111.7306 238° Southwest 260 299 10,100 -180 Descending Albuquerque Center
10:00PM 33.6706 -111.7983 236° Southwest 245 282 10,100 -120 Level Albuquerque Center
10:01PM 33.6333 -111.8669 237° Southwest 245 282 9,900 -600 Descending Albuquerque Center
10:02PM 33.5958 -111.9353 237° Southwest 245 282 9,000 -960 Descending Albuquerque Center
10:03PM 33.5611 -112.0039 239° Southwest 242 278 8,000 -1,080 Descending Albuquerque Center
10:04PM 33.5256 -112.0728 238° Southwest 242 278 6,900 -780 Descending Albuquerque Center
10:05PM 33.5253 -112.1458 270° West 214 246 6,500 -780 Descending Albuquerque Center
10:06PM 33.5219 -112.2097 266° West 195 224 5,400 -1,140 Descending Albuquerque Center
10:07PM 33.4711 -112.2189 189° South 186 214 4,300 -960 Descending Albuquerque Center
10:08PM 33.4433 -112.1772 129° Southeast 164 189 3,500 -780 Descending Albuquerque Center
10:09PM 33.4411 -112.1275 93° East 150 173 2,800 -720 Descending Albuquerque Center
10:10PM 33.4408 -112.0847 90° East 133 153 2,100 -780 Descending Albuquerque Center
10:11PM 33.4406 -112.0392 90° East 135 155 1,300 -600 Descending Albuquerque Center
10:12PM 33.4406 -111.9850 90° East 137 158 1,000 -300 Descending Albuquerque Center